< Cyclone 197512 1975 Season Cyclone 197514 >
Cyclone 197513 (VIDA)
General InformationTrack Information on Google Maps || ResourceGoogle EarthGE AnimationAtom FeedGeoJSON
Detalied Best Track (Time Zone = UTC)
Year Month Day Hour Lat. Long. Pressure (hPa) Wind (kt) Class Image Chart
1975 3 16 00 -14.1 95.4 999 0 0 -- --
1975 3 16 06 -14.1 96.0 998 0 0 -- --
1975 3 16 12 -14.1 96.9 997 0 0 -- --
1975 3 16 18 -14.1 97.9 995 0 0 -- --
1975 3 17 00 -13.8 98.7 994 0 0 -- --
1975 3 17 06 -13.3 99.6 993 0 0 -- --
1975 3 17 12 -13.2 100.8 992 0 0 -- --
1975 3 17 18 -13.3 101.9 990 0 0 -- --
1975 3 18 00 -13.6 102.6 989 0 0 -- --
1975 3 18 03 -14.1 103.6 989 0 0 -- --
1975 3 18 06 -14.6 104.6 988 0 0 -- --
1975 3 18 09 -15.2 105.4 987 0 0 -- --
1975 3 18 12 -15.9 106.2 985 0 0 -- --
1975 3 18 15 -16.7 106.8 984 0 0 -- --
1975 3 18 18 -17.6 107.5 983 0 0 -- --
1975 3 18 21 -18.8 108.1 983 0 0 -- --
1975 3 19 00 -20.0 108.7 984 0 0 -- --
1975 3 19 03 -21.4 109.3 983 0 0 -- --
1975 3 19 06 -22.9 109.8 982 0 0 -- --
1975 3 19 09 -24.4 110.0 983 0 0 -- --
1975 3 19 12 -25.9 110.2 985 0 0 -- --
1975 3 19 15 -27.4 110.5 986 0 0 -- --
1975 3 19 18 -28.9 110.9 986 0 0 -- --
1975 3 19 21 -30.4 111.5 987 0 0 -- --
1975 3 20 00 -31.8 112.2 988 0 0 -- --
1975 3 20 03 -33.2 113.2 990 0 0 -- --
1975 3 20 06 -34.5 114.3 991 0 0 -- --
1975 3 20 09 -35.7 115.6 993 0 0 -- --
1975 3 20 12 -36.7 117.0 995 0 0 -- --
< Cyclone 197512 1975 Season Cyclone 197514 >

Help